LHPR/QGY METAR and TAF weather

Enter ICAO airport designator
Station Type Date Time Source
LHPR METAR 2020/07/09 23:45 UTC NOAA

LHPR 092345Z AUTO 13005KT CAVOK 18/13 Q1016


Station Type Date Time Source
LHPR Decoded METAR 2020/07/09 23:45 UTC NOAA

Station name not available
Jul 09, 2020 - 07:45 PM EDT / 2020.07.09 2345 UTC
Wind: from the SE (130 degrees) at 6 MPH (5 KT):0
Visibility: greater than 7 mile(s):0
Temperature: 64 F (18 C)
Dew Point: 55 F (13 C)
Relative Humidity: 72%
Pressure (altimeter): 30.00 in. Hg (1016 hPa)
ob: LHPR 092345Z AUTO 13005KT CAVOK 18/13 Q1016
cycle: 0

Station Type Date Time Source
LHPR TAF UTC NOAA

Error!

Example: see airport list